AYPY Airport Information

Runway Information
Runway 14R Length 4625 ft width 148 ft Elevation 104 ft Threshold N/A Heading 142
Runway 32L Length 4625 ft Width 148 ft Elevation 129 ft Threshold N/A Heading 322
Runway 14L Length 9022 ft width 148 ft Elevation 103 ft Threshold N/A Heading 148
Runway 32R Length 9022 ft Width 148 ft Elevation 128 ft Threshold N/A Heading 328
Airport Frequencies
Type APP Name JACKSONS A Frequency 125.8 MHZ
Type ATIS Name ATIS Frequency 117 MHZ
Type GND Name JACKSONS G Frequency 121.7 MHZ
Type TWR Name JACKSONS T Frequency 118.1 MHZ
Airport Navaids
Type NDB Name Jackson Frequency 380 KHZ
Type NDB Name Parer Frequency 395 KHZ
Type VOR-DME Name Port Moresby Frequency 117000 KHZ
Type NDB Name Port Moresby Frequency 368 KHZ
Airport Weather Information & NOTAM
ADDS - METARS form results

(1606 UTC 27 November 2022)
Data provider http://aviationweather.gov/metar/data/
 
METAR text: AYPY 271600Z VRB03KT 9999 FEW050 24/23 Q1007
Conditions at: AYPY (PORT MORESBY INT, PG) observed 1600 UTC 27 November 2022
Temperature: 24.0°C (75°F)
Dewpoint: 23.0°C (73°F) [RH = 94%]
Pressure (altimeter): 29.73 inches Hg (1007.0 mb)
Winds: variable direction winds at 3 MPH (3 knots; 1.5 m/s)
Visibility: 6 or more miles (10+ km)
Ceiling: at least 12,000 feet AGL
Clouds: few clouds at 5000 feet AGL
Weather: no significant weather observed at this time